Time;durP1;ratioP1;P1;durP2;ratioP2;P2;SDS_P1;SDS_P2;PMS_P1;PMS_P2;Temp;Humidity;BMP_temperature;BMP_pressure;BME280_temperature;BME280_humidity;BME280_pressure;Samples;Min_cycle;Max_cycle;Signal;HPM_P1;HPM_P2
2023/06/17 00:00:47;;;;;;;12.90;7.80;;;12.50;99.90;;;;;;5066849;28;20052;-58
2023/06/17 00:03:14;;;;;;;9.02;6.60;;;12.50;99.90;;;;;;5065947;28;20048;-59
2023/06/17 00:05:41;;;;;;;11.13;7.13;;;12.50;99.90;;;;;;5043444;28;20416;-60
2023/06/17 00:08:08;;;;;;;8.27;5.85;;;12.40;99.90;;;;;;5063128;28;20071;-60
2023/06/17 00:10:35;;;;;;;8.63;6.25;;;12.40;99.90;;;;;;5066585;28;20032;-60
2023/06/17 00:13:02;;;;;;;13.30;6.47;;;12.50;99.90;;;;;;5064840;28;20044;-58
2023/06/17 00:15:32;;;;;;;10.68;6.35;;;12.50;99.90;;;;;;5065469;28;20094;-59
2023/06/17 00:18:00;;;;;;;8.95;6.68;;;12.50;99.90;;;;;;5065165;28;20049;-59
2023/06/17 00:20:28;;;;;;;10.52;6.43;;;12.60;99.90;;;;;;5071623;28;20052;-59
2023/06/17 00:22:55;;;;;;;8.68;6.00;;;12.60;99.90;;;;;;5070146;28;20508;-60
2023/06/17 00:25:22;;;;;;;9.63;6.57;;;12.60;99.90;;;;;;5072251;28;20032;-60
2023/06/17 00:27:49;;;;;;;12.60;6.85;;;12.60;99.90;;;;;;5065846;28;20061;-60
2023/06/17 00:30:16;;;;;;;8.88;6.38;;;12.70;99.90;;;;;;5053444;28;20090;-59
2023/06/17 00:32:44;;;;;;;;;;;12.70;99.90;;;;;;5048309;28;20051;-60
2023/06/17 00:35:11;;;;;;;12.38;6.63;;;12.70;99.90;;;;;;5053623;28;20440;-59
2023/06/17 00:37:38;;;;;;;10.40;7.38;;;12.70;99.90;;;;;;5067957;28;20041;-60
2023/06/17 00:40:07;;;;;;;12.85;6.97;;;12.60;99.90;;;;;;5050071;28;20441;-59
2023/06/17 00:42:35;;;;;;;13.13;7.30;;;12.60;99.90;;;;;;5048120;28;20091;-60
2023/06/17 00:45:03;;;;;;;9.52;6.90;;;12.60;99.90;;;;;;5068087;28;20028;-59
2023/06/17 00:47:30;;;;;;;10.10;7.03;;;12.60;99.90;;;;;;5048109;28;20040;-57
2023/06/17 00:49:57;;;;;;;10.50;6.78;;;12.50;99.90;;;;;;5049442;28;20524;-59
2023/06/17 00:52:26;;;;;;;12.23;7.13;;;12.50;99.90;;;;;;5062155;28;20048;-60
2023/06/17 00:55:09;;;;;;;10.75;6.90;;;12.60;99.90;;;;;;5066704;28;20115;-59
2023/06/17 00:57:38;;;;;;;10.05;6.68;;;12.50;99.90;;;;;;5051202;28;20056;-59
2023/06/17 01:00:09;;;;;;;8.40;6.15;;;12.50;99.90;;;;;;5051433;28;20064;-60
2023/06/17 01:02:40;;;;;;;12.65;5.82;;;12.50;99.90;;;;;;5063775;28;20552;-60
2023/06/17 01:05:12;;;;;;;10.07;5.68;;;12.50;99.90;;;;;;5066461;28;20040;-60
2023/06/17 01:08:02;;;;;;;7.35;5.65;;;12.50;99.90;;;;;;5038941;28;20044;-59
2023/06/17 01:11:03;;;;;;;10.80;6.97;;;13.00;99.90;;;;;;5059453;28;20033;-61
2023/06/17 01:13:54;;;;;;;13.15;6.32;;;12.60;99.90;;;;;;5063812;28;20071;-60
2023/06/17 01:16:24;;;;;;;9.43;6.55;;;12.50;99.90;;;;;;5071919;28;20099;-59
2023/06/17 01:18:52;;;;;;;10.68;7.10;;;12.50;99.90;;;;;;5061560;28;20040;-59
2023/06/17 01:21:22;;;;;;;10.35;7.63;;;12.40;99.90;;;;;;5041449;28;20045;-60
2023/06/17 01:23:58;;;;;;;8.68;6.45;;;12.40;99.90;;;;;;5048877;28;20037;-60
2023/06/17 01:26:28;;;;;;;11.35;7.40;;;12.40;99.90;;;;;;5036763;28;20051;-60
2023/06/17 01:28:59;;;;;;;9.90;7.63;;;12.40;99.90;;;;;;5050716;28;20048;-59
2023/06/17 01:31:27;;;;;;;12.20;7.13;;;12.40;99.90;;;;;;5054455;28;20041;-60
2023/06/17 01:33:54;;;;;;;;;;;12.30;99.90;;;;;;5047392;28;20476;-59
2023/06/17 01:36:26;;;;;;;10.88;7.68;;;12.30;99.90;;;;;;5043208;28;19920;-59
2023/06/17 01:39:02;;;;;;;10.15;7.55;;;12.20;99.90;;;;;;5044617;28;20041;-59
2023/06/17 01:41:35;;;;;;;11.40;7.30;;;12.20;99.90;;;;;;5053248;28;20052;-60
2023/06/17 01:44:04;;;;;;;12.38;7.40;;;12.20;99.90;;;;;;5037347;28;20041;-59
2023/06/17 01:46:31;;;;;;;12.13;7.70;;;12.20;99.90;;;;;;5041854;28;20040;-60
2023/06/17 01:49:00;;;;;;;10.20;6.57;;;12.10;99.90;;;;;;5053212;28;20049;-59
2023/06/17 01:51:27;;;;;;;9.73;6.82;;;12.10;99.90;;;;;;5062590;28;20032;-59
2023/06/17 01:53:54;;;;;;;9.68;6.13;;;12.10;99.90;;;;;;5048001;28;20048;-60
2023/06/17 01:56:21;;;;;;;9.05;6.60;;;12.10;99.90;;;;;;5052368;28;20044;-60
2023/06/17 01:58:48;;;;;;;9.43;6.10;;;12.10;99.90;;;;;;5047971;28;20417;-59
2023/06/17 02:01:15;;;;;;;10.02;6.78;;;12.00;99.90;;;;;;5062043;28;20155;-61
2023/06/17 02:03:42;;;;;;;8.48;6.03;;;12.00;99.90;;;;;;5046266;28;20043;-58
2023/06/17 02:06:09;;;;;;;8.68;6.05;;;12.00;99.90;;;;;;5051528;28;20048;-59
2023/06/17 02:08:36;;;;;;;13.98;6.93;;;11.90;99.90;;;;;;5044831;28;20135;-60
2023/06/17 02:11:03;;;;;;;10.30;6.68;;;11.90;99.90;;;;;;5045307;28;20033;-60
2023/06/17 02:13:30;;;;;;;11.68;7.10;;;11.90;99.90;;;;;;5050150;28;20116;-59
2023/06/17 02:15:56;;;;;;;11.52;7.82;;;11.80;99.90;;;;;;5052361;28;20041;-59
2023/06/17 02:18:24;;;;;;;11.98;7.68;;;11.80;99.90;;;;;;5051031;28;20048;-59
2023/06/17 02:20:50;;;;;;;;;;;11.80;99.90;;;;;;5044087;28;20051;-58
2023/06/17 02:23:17;;;;;;;10.18;7.25;;;11.70;99.90;;;;;;5050830;28;19927;-60
2023/06/17 02:25:44;;;;;;;11.95;7.65;;;11.70;99.90;;;;;;5057538;28;20033;-60
2023/06/17 02:28:11;;;;;;;11.77;7.65;;;11.70;99.90;;;;;;5050861;28;20049;-59
2023/06/17 02:30:37;;;;;;;11.90;7.15;;;11.70;99.90;;;;;;5043363;28;20045;-57
2023/06/17 02:33:05;;;;;;;9.75;7.00;;;11.70;99.90;;;;;;5046702;28;20040;-60
2023/06/17 02:35:32;;;;;;;14.13;8.07;;;11.80;99.90;;;;;;5052935;28;20064;-59
2023/06/17 02:37:59;;;;;;;10.85;7.38;;;11.80;99.90;;;;;;5052475;28;20131;-59
2023/06/17 02:40:26;;;;;;;10.68;7.50;;;11.80;99.90;;;;;;5051367;28;20040;-60
2023/06/17 02:42:53;;;;;;;10.43;6.68;;;11.80;99.90;;;;;;5048956;28;20033;-59
2023/06/17 02:45:19;;;;;;;10.38;7.00;;;12.00;99.90;;;;;;5068027;28;20408;-59
2023/06/17 02:47:47;;;;;;;9.40;6.68;;;11.80;99.90;;;;;;5050335;28;20044;-59
2023/06/17 02:50:14;;;;;;;11.73;6.85;;;11.80;99.90;;;;;;5040658;28;20127;-59
2023/06/17 02:52:41;;;;;;;10.13;7.18;;;11.80;99.90;;;;;;5036181;28;20727;-59
2023/06/17 02:55:08;;;;;;;11.30;7.15;;;11.80;99.90;;;;;;5051920;28;20489;-60
2023/06/17 02:57:35;;;;;;;10.10;6.85;;;11.80;99.90;;;;;;5052458;28;20110;-59
2023/06/17 03:00:06;;;;;;;9.70;6.72;;;11.80;99.90;;;;;;5043284;28;20040;-59
2023/06/17 03:02:32;;;;;;;10.00;6.38;;;11.80;99.90;;;;;;5044537;28;20062;-59
2023/06/17 03:04:59;;;;;;;11.98;7.32;;;11.70;99.90;;;;;;5052990;28;20036;-59
2023/06/17 03:07:26;;;;;;;11.50;6.65;;;11.70;99.90;;;;;;5048284;28;20044;-59
2023/06/17 03:09:53;;;;;;;8.27;6.50;;;11.60;99.90;;;;;;5050603;28;20047;-59
2023/06/17 03:12:20;;;;;;;;;;;11.60;99.90;;;;;;5049960;28;20079;-60
2023/06/17 03:14:47;;;;;;;9.07;6.45;;;11.50;99.90;;;;;;5047532;28;19942;-59
2023/06/17 03:17:16;;;;;;;10.15;7.45;;;11.50;99.90;;;;;;5041329;28;20505;-59
2023/06/17 03:19:44;;;;;;;9.15;6.93;;;11.50;99.90;;;;;;5047061;28;20037;-60
2023/06/17 03:22:11;;;;;;;;;;;11.50;99.90;;;;;;5049173;28;20504;-59
2023/06/17 03:24:42;;;;;;;11.60;7.63;;;11.40;99.90;;;;;;5039466;28;19946;-60
2023/06/17 03:27:09;;;;;;;;;;;11.40;99.90;;;;;;5048924;28;20071;-60
2023/06/17 03:29:36;;;;;;;11.32;7.32;;;11.40;99.90;;;;;;5041155;28;20050;-59
2023/06/17 03:32:04;;;;;;;11.23;7.28;;;11.40;99.90;;;;;;5051365;28;20135;-60
2023/06/17 03:34:32;;;;;;;12.10;7.45;;;11.40;99.90;;;;;;5046341;28;20045;-59
2023/06/17 03:37:04;;;;;;;11.95;7.28;;;11.50;99.90;;;;;;5055987;28;20044;-59
2023/06/17 03:39:31;;;;;;;11.73;7.60;;;11.50;99.90;;;;;;5055914;28;20127;-59
2023/06/17 03:41:57;;;;;;;10.13;7.10;;;11.50;99.90;;;;;;5049612;28;20136;-60
2023/06/17 03:44:25;;;;;;;9.85;6.97;;;11.50;99.90;;;;;;5037080;28;20505;-58
2023/06/17 03:46:52;;;;;;;8.90;7.05;;;11.50;99.90;;;;;;5050668;28;20036;-59
2023/06/17 03:49:19;;;;;;;13.30;7.15;;;11.50;99.90;;;;;;5061860;28;20400;-59
2023/06/17 03:51:46;;;;;;;11.80;7.50;;;11.50;99.90;;;;;;5050919;28;20490;-60
2023/06/17 03:54:13;;;;;;;11.25;7.18;;;11.50;99.90;;;;;;5034979;28;20037;-59
2023/06/17 03:56:40;;;;;;;10.10;7.57;;;11.50;99.90;;;;;;5044451;28;20551;-60
2023/06/17 03:59:08;;;;;;;10.25;7.45;;;11.50;99.90;;;;;;5067545;28;20040;-60
2023/06/17 04:01:35;;;;;;;13.80;8.15;;;11.60;99.90;;;;;;5063618;28;20067;-60
2023/06/17 04:04:03;;;;;;;11.32;8.27;;;11.70;99.90;;;;;;5073093;28;20143;-60
2023/06/17 04:06:30;;;;;;;;;;;11.70;99.90;;;;;;5064060;28;20512;-60
2023/06/17 04:08:57;;;;;;;12.85;7.03;;;11.80;99.90;;;;;;5042990;28;20282;-60
2023/06/17 04:11:23;;;;;;;14.40;8.02;;;11.80;99.90;;;;;;5045269;28;20055;-60
2023/06/17 04:13:50;;;;;;;10.20;7.35;;;11.90;99.90;;;;;;5054846;28;20123;-60
2023/06/17 04:16:17;;;;;;;9.93;6.88;;;11.90;99.90;;;;;;5055939;28;20119;-60
2023/06/17 04:18:45;;;;;;;12.02;7.90;;;12.00;99.90;;;;;;5060779;28;20485;-59
2023/06/17 04:21:12;;;;;;;12.18;7.50;;;12.00;99.90;;;;;;5051572;28;20048;-60
2023/06/17 04:23:39;;;;;;;14.77;9.20;;;12.00;99.90;;;;;;5071055;28;20083;-60
2023/06/17 04:26:06;;;;;;;11.90;6.85;;;12.00;99.90;;;;;;5047443;28;20049;-60
2023/06/17 04:28:34;;;;;;;11.90;6.97;;;12.10;99.90;;;;;;5047586;28;20041;-59
2023/06/17 04:31:01;;;;;;;;;;;12.00;99.90;;;;;;5055109;28;20049;-59
2023/06/17 04:33:31;;;;;;;10.18;6.53;;;12.00;99.90;;;;;;5045481;28;20430;-60
2023/06/17 04:36:07;;;;;;;10.90;6.45;;;11.90;99.90;;;;;;5054034;28;20497;-60
2023/06/17 04:38:38;;;;;;;10.02;6.88;;;12.00;99.90;;;;;;5054406;28;20052;-59
2023/06/17 04:41:05;;;;;;;8.63;6.45;;;12.00;99.90;;;;;;5054227;28;20490;-60
2023/06/17 04:43:34;;;;;;;11.48;7.18;;;12.10;99.90;;;;;;5053752;28;20075;-59
2023/06/17 04:46:01;;;;;;;11.25;6.88;;;12.10;99.90;;;;;;5052310;28;20135;-60
2023/06/17 04:48:31;;;;;;;9.50;6.90;;;12.20;99.90;;;;;;5053816;28;20076;-58
2023/06/17 04:50:58;;;;;;;9.35;6.85;;;12.20;99.90;;;;;;5066340;28;20482;-59
2023/06/17 04:53:25;;;;;;;11.32;6.50;;;12.30;99.90;;;;;;5058285;28;20450;-60
2023/06/17 04:55:52;;;;;;;11.60;7.90;;;12.30;99.90;;;;;;5048116;28;20083;-60
2023/06/17 04:58:19;;;;;;;12.35;8.13;;;12.40;99.90;;;;;;5047315;28;20635;-60
2023/06/17 05:00:49;;;;;;;12.00;8.50;;;12.50;99.90;;;;;;5054658;28;20050;-59
2023/06/17 05:03:23;;;;;;;12.38;8.63;;;12.60;99.90;;;;;;5053842;28;20056;-60
2023/06/17 05:05:52;;;;;;;14.38;8.48;;;12.70;99.90;;;;;;5052565;28;20127;-60
2023/06/17 05:08:19;;;;;;;14.07;8.82;;;12.80;99.90;;;;;;5050382;28;20049;-58
2023/06/17 05:10:46;;;;;;;13.05;8.57;;;12.90;99.90;;;;;;5053347;28;20063;-60
2023/06/17 05:13:13;;;;;;;12.55;8.80;;;12.90;99.90;;;;;;5060080;28;20059;-58
2023/06/17 05:15:41;;;;;;;11.80;8.38;;;13.00;99.90;;;;;;5037500;28;20140;-58
2023/06/17 05:18:08;;;;;;;12.55;9.10;;;12.90;99.90;;;;;;5047014;28;20087;-56
2023/06/17 05:20:36;;;;;;;11.52;8.88;;;12.90;99.90;;;;;;5036882;28;20269;-58
2023/06/17 05:23:03;;;;;;;12.63;8.20;;;12.90;99.90;;;;;;5048241;28;20128;-59
2023/06/17 05:25:30;;;;;;;12.65;8.00;;;13.00;99.90;;;;;;5036817;28;20056;-59
2023/06/17 05:27:57;;;;;;;10.13;8.20;;;13.00;99.90;;;;;;5046247;28;20070;-59
2023/06/17 05:30:27;;;;;;;12.90;9.32;;;13.10;99.90;;;;;;5043307;28;20521;-59
2023/06/17 05:32:57;;;;;;;13.23;8.13;;;13.20;99.90;;;;;;5036870;28;20086;-57
2023/06/17 05:35:24;;;;;;;11.18;8.80;;;13.30;99.90;;;;;;5049587;28;20056;-59
2023/06/17 05:37:52;;;;;;;13.10;7.82;;;13.40;99.90;;;;;;5052720;28;20374;-60
2023/06/17 05:40:19;;;;;;;12.95;8.50;;;13.30;99.90;;;;;;5057242;28;20048;-59
2023/06/17 05:42:46;;;;;;;14.18;8.50;;;13.30;99.90;;;;;;5046418;28;20068;-59
2023/06/17 05:45:13;;;;;;;11.73;7.90;;;13.30;99.90;;;;;;5045466;28;20052;-59
2023/06/17 05:47:40;;;;;;;12.73;7.95;;;13.30;99.90;;;;;;5067458;28;20095;-60
2023/06/17 05:50:07;;;;;;;11.25;8.10;;;13.40;99.90;;;;;;5045149;28;20044;-59
2023/06/17 05:52:37;;;;;;;12.88;8.07;;;13.40;99.90;;;;;;5047572;28;20052;-59
2023/06/17 05:55:05;;;;;;;12.88;8.13;;;13.40;99.90;;;;;;5049538;28;20400;-60
2023/06/17 05:57:31;;;;;;;;;;;13.50;99.90;;;;;;5052144;28;20070;-60
2023/06/17 05:59:58;;;;;;;12.07;7.97;;;13.50;99.90;;;;;;5036998;28;19943;-59
2023/06/17 06:02:26;;;;;;;10.85;8.00;;;13.50;99.90;;;;;;5053186;28;20048;-60
2023/06/17 06:04:53;;;;;;;9.85;7.43;;;13.60;99.90;;;;;;5037101;28;20122;-59
2023/06/17 06:07:20;;;;;;;11.18;8.00;;;13.70;99.90;;;;;;5048165;28;20040;-59
2023/06/17 06:09:47;;;;;;;14.38;7.70;;;13.70;99.90;;;;;;5042892;28;20040;-60
2023/06/17 06:12:14;;;;;;;12.23;8.27;;;13.80;99.90;;;;;;5048259;28;20052;-60
2023/06/17 06:14:41;;;;;;;10.65;7.72;;;13.90;99.90;;;;;;5051774;28;20049;-60
2023/06/17 06:17:08;;;;;;;12.20;7.55;;;14.00;99.90;;;;;;5046195;28;20049;-59
2023/06/17 06:19:35;;;;;;;11.05;8.07;;;14.10;99.90;;;;;;5042520;28;20055;-59
2023/06/17 06:22:02;;;;;;;13.50;9.25;;;14.20;99.90;;;;;;5058722;28;20128;-59
2023/06/17 06:24:28;;;;;;;11.07;8.27;;;14.30;99.90;;;;;;5046160;28;20044;-59
2023/06/17 06:26:56;;;;;;;11.32;7.70;;;14.30;99.90;;;;;;5061439;28;20062;-60
2023/06/17 06:29:23;;;;;;;;;;;14.40;99.90;;;;;;5059435;28;20059;-58
2023/06/17 06:31:50;;;;;;;10.43;7.38;;;14.50;99.90;;;;;;5043709;28;19924;-58
2023/06/17 06:34:18;;;;;;;10.80;7.85;;;14.50;99.90;;;;;;5043219;28;20474;-60
2023/06/17 06:36:45;;;;;;;13.43;7.63;;;14.60;99.90;;;;;;5060163;28;20511;-59
2023/06/17 06:39:13;;;;;;;11.25;6.90;;;14.70;99.90;;;;;;5040824;28;20430;-59
2023/06/17 06:41:41;;;;;;;9.57;6.70;;;14.80;99.90;;;;;;5062173;28;20044;-59
2023/06/17 06:44:27;;;;;;;11.05;6.82;;;14.90;99.90;;;;;;5046535;28;20076;-59
2023/06/17 06:46:55;;;;;;;10.10;6.75;;;15.10;99.90;;;;;;5051450;28;20493;-59
2023/06/17 06:49:22;;;;;;;11.13;6.80;;;15.20;99.90;;;;;;5046329;28;20132;-58
2023/06/17 06:51:49;;;;;;;8.95;6.50;;;15.20;99.90;;;;;;5055651;28;20675;-58
2023/06/17 06:54:16;;;;;;;9.77;6.40;;;15.40;99.90;;;;;;5046248;28;20506;-58
2023/06/17 06:56:44;;;;;;;8.68;6.38;;;15.70;99.90;;;;;;5045331;28;20056;-59
2023/06/17 06:59:11;;;;;;;8.15;5.90;;;15.90;99.90;;;;;;5041943;28;20053;-59
2023/06/17 07:01:38;;;;;;;7.03;5.53;;;16.10;99.90;;;;;;5032187;28;20044;-58
2023/06/17 07:04:06;;;;;;;10.43;6.35;;;16.10;99.90;;;;;;5047352;28;20044;-58
2023/06/17 07:06:32;;;;;;;9.93;6.55;;;16.30;99.90;;;;;;5053748;28;20064;-59
2023/06/17 07:09:03;;;;;;;8.48;6.05;;;16.40;99.90;;;;;;5057324;28;20040;-60
2023/06/17 07:11:30;;;;;;;8.80;6.38;;;16.50;99.90;;;;;;5046566;28;20076;-59
2023/06/17 07:13:57;;;;;;;10.05;5.53;;;16.60;99.90;;;;;;5057045;28;20032;-60
2023/06/17 07:16:23;;;;;;;8.95;5.60;;;16.80;99.90;;;;;;5072018;28;20040;-59
2023/06/17 07:18:55;;;;;;;8.90;6.32;;;17.00;99.90;;;;;;5044095;28;20044;-60
2023/06/17 07:21:22;;;;;;;12.50;6.05;;;17.20;99.90;;;;;;5031832;28;20041;-60
2023/06/17 07:23:50;;;;;;;9.40;6.30;;;17.10;99.90;;;;;;5056474;28;20131;-60
2023/06/17 07:26:18;;;;;;;9.07;5.13;;;17.20;99.90;;;;;;5054066;28;20051;-60
2023/06/17 07:28:45;;;;;;;7.78;6.00;;;17.20;99.90;;;;;;5050301;28;20048;-59
2023/06/17 07:31:12;;;;;;;7.18;5.30;;;17.40;99.90;;;;;;5053433;28;20090;-58
2023/06/17 07:33:40;;;;;;;9.65;6.05;;;17.60;99.90;;;;;;5054768;28;20083;-60
2023/06/17 07:36:07;;;;;;;8.05;5.78;;;17.90;99.90;;;;;;5050693;28;20056;-59
2023/06/17 07:38:35;;;;;;;7.78;5.32;;;18.10;99.90;;;;;;5056138;28;20127;-60
2023/06/17 07:41:02;;;;;;;11.90;6.10;;;18.30;99.90;;;;;;5050709;28;20101;-59
2023/06/17 07:43:30;;;;;;;8.50;5.90;;;18.20;99.90;;;;;;5057615;28;20107;-59
2023/06/17 07:45:57;;;;;;;10.80;6.07;;;18.30;99.90;;;;;;5035797;28;20123;-59
2023/06/17 07:48:23;;;;;;;13.75;5.70;;;18.50;99.90;;;;;;5074222;28;20463;-59
2023/06/17 07:50:50;;;;;;;9.32;5.65;;;18.90;99.90;;;;;;5056563;28;20033;-58
2023/06/17 07:53:17;;;;;;;6.80;5.45;;;19.10;99.90;;;;;;5064530;28;20513;-60
2023/06/17 07:55:44;;;;;;;9.18;6.55;;;19.30;99.90;;;;;;5063375;28;20036;-59
2023/06/17 07:58:11;;;;;;;10.52;5.80;;;19.20;99.90;;;;;;5068924;28;20511;-60
2023/06/17 08:00:37;;;;;;;7.50;5.57;;;19.00;99.90;;;;;;5063961;28;20059;-59
2023/06/17 08:03:05;;;;;;;7.65;5.50;;;18.70;99.90;;;;;;5066490;28;20115;-59
2023/06/17 08:05:32;;;;;;;7.43;5.55;;;18.40;99.90;;;;;;5067576;28;20094;-59
2023/06/17 08:07:58;;;;;;;7.22;5.57;;;18.30;99.90;;;;;;5060567;28;20047;-59
2023/06/17 08:10:25;;;;;;;8.52;6.22;;;18.20;99.90;;;;;;5064980;28;20048;-60
2023/06/17 08:12:52;;;;;;;8.07;6.00;;;18.20;99.90;;;;;;5069335;28;20417;-59
2023/06/17 08:15:19;;;;;;;7.25;5.43;;;18.50;99.90;;;;;;5059546;28;20059;-59
2023/06/17 08:17:48;;;;;;;9.65;5.90;;;18.80;99.90;;;;;;5068784;28;20045;-59
2023/06/17 08:20:16;;;;;;;8.07;5.88;;;19.30;99.90;;;;;;5056797;28;20466;-57
2023/06/17 08:22:43;;;;;;;7.93;5.40;;;19.60;99.90;;;;;;5059340;28;20075;-60
2023/06/17 08:25:10;;;;;;;7.50;5.13;;;19.90;99.90;;;;;;5063766;28;20501;-59
2023/06/17 08:27:40;;;;;;;9.63;5.60;;;20.00;99.90;;;;;;5064711;28;20501;-59
2023/06/17 08:30:08;;;;;;;8.85;6.05;;;19.70;99.90;;;;;;5067552;28;20040;-58
2023/06/17 08:32:34;;;;;;;;;;;20.00;99.90;;;;;;5069383;28;20051;-58
2023/06/17 08:35:06;;;;;;;8.75;5.55;;;20.40;99.90;;;;;;5061487;28;19924;-59
2023/06/17 08:37:33;;;;;;;7.20;5.13;;;20.70;99.90;;;;;;5062958;28;20049;-60
2023/06/17 08:40:00;;;;;;;9.82;5.82;;;21.00;99.90;;;;;;5054954;28;20051;-59
2023/06/17 08:42:27;;;;;;;7.32;4.70;;;20.70;99.90;;;;;;5054109;28;20397;-59
2023/06/17 08:44:58;;;;;;;11.13;5.18;;;20.60;99.90;;;;;;5056653;28;20029;-59
2023/06/17 08:47:26;;;;;;;7.95;5.10;;;20.80;99.90;;;;;;5053189;28;20068;-59
2023/06/17 08:49:57;;;;;;;6.53;5.10;;;21.10;99.90;;;;;;5065547;28;20420;-59
2023/06/17 08:52:24;;;;;;;8.25;5.43;;;21.20;99.90;;;;;;5070526;28;20044;-60
2023/06/17 08:54:53;;;;;;;7.80;5.88;;;21.10;99.90;;;;;;5064348;28;20128;-59
2023/06/17 08:57:20;;;;;;;7.47;5.75;;;21.10;99.90;;;;;;5060124;28;20037;-58
2023/06/17 08:59:47;;;;;;;8.25;6.03;;;21.30;99.90;;;;;;5045108;28;20573;-59
2023/06/17 09:02:14;;;;;;;8.60;6.35;;;21.20;99.90;;;;;;5065826;28;20048;-60
2023/06/17 09:04:42;;;;;;;8.45;5.72;;;21.20;99.90;;;;;;5067436;28;20112;-57
2023/06/17 09:07:09;;;;;;;6.60;5.05;;;21.30;99.90;;;;;;5059435;28;20474;-60
2023/06/17 09:09:37;;;;;;;8.13;5.65;;;21.60;99.90;;;;;;5053896;28;20049;-59
2023/06/17 09:12:05;;;;;;;8.05;5.30;;;21.80;99.90;;;;;;5063442;28;20067;-61
2023/06/17 09:14:33;;;;;;;6.75;5.05;;;21.90;99.90;;;;;;5052033;28;20041;-61
2023/06/17 09:17:00;;;;;;;9.23;6.28;;;21.80;99.90;;;;;;5071479;28;20036;-60
2023/06/17 09:19:31;;;;;;;8.60;6.00;;;21.40;99.90;;;;;;5065617;28;20043;-61
2023/06/17 09:22:06;;;;;;;7.63;5.63;;;20.90;99.90;;;;;;5063633;28;20060;-61
2023/06/17 09:24:33;;;;;;;5.80;5.20;;;20.70;99.90;;;;;;5055014;28;20045;-61
2023/06/17 09:27:01;;;;;;;;;;;20.90;99.90;;;;;;5064170;28;20120;-61
2023/06/17 09:29:31;;;;;;;9.07;4.93;;;21.20;99.90;;;;;;5056191;28;19921;-61
2023/06/17 09:32:02;;;;;;;7.18;4.68;;;22.00;99.90;;;;;;5051567;28;20126;-61
2023/06/17 09:34:29;;;;;;;9.15;5.47;;;22.10;99.90;;;;;;5058016;28;20405;-60
2023/06/17 09:37:00;;;;;;;7.47;5.60;;;21.40;99.90;;;;;;5071705;28;20046;-60
2023/06/17 09:39:32;;;;;;;6.35;5.03;;;20.90;99.90;;;;;;5062566;28;20051;-60
2023/06/17 09:42:08;;;;;;;6.28;5.18;;;20.60;99.90;;;;;;5058626;28;20090;-60
2023/06/17 09:44:39;;;;;;;9.05;5.10;;;20.70;99.90;;;;;;5070717;28;20493;-57
2023/06/17 09:47:07;;;;;;;6.93;5.05;;;20.60;99.90;;;;;;5067579;28;20047;-59
2023/06/17 09:49:36;;;;;;;10.23;5.13;;;20.50;99.90;;;;;;5069235;28;20045;-58
2023/06/17 09:52:09;;;;;;;8.90;5.70;;;20.80;99.90;;;;;;5055727;28;20090;-57
2023/06/17 09:54:36;;;;;;;7.25;5.03;;;21.40;99.90;;;;;;5062404;28;20531;-58
2023/06/17 09:57:07;;;;;;;6.88;5.47;;;22.10;99.90;;;;;;5072042;28;20734;-59
2023/06/17 09:59:34;;;;;;;5.57;4.97;;;22.50;99.90;;;;;;5067247;28;20148;-58
2023/06/17 10:02:00;;;;;;;6.35;5.28;;;22.70;99.90;;;;;;5063653;28;20393;-59
2023/06/17 10:04:27;;;;;;;8.52;5.22;;;23.00;99.90;;;;;;5063196;28;20041;-57
2023/06/17 10:06:56;;;;;;;5.25;4.70;;;22.90;99.90;;;;;;5071268;28;20047;-57
2023/06/17 10:09:24;;;;;;;7.43;5.35;;;23.00;99.90;;;;;;5063246;28;20048;-58
2023/06/17 10:11:53;;;;;;;7.05;5.32;;;23.10;99.90;;;;;;5065892;28;20044;-59
2023/06/17 10:14:30;;;;;;;7.55;5.28;;;23.50;99.50;;;;;;5066125;28;20124;-58
2023/06/17 10:16:58;;;;;;;10.25;5.10;;;23.60;98.30;;;;;;5062584;28;20044;-59
2023/06/17 10:19:29;;;;;;;11.02;4.82;;;23.10;98.50;;;;;;5062891;28;20107;-59
2023/06/17 10:21:58;;;;;;;7.43;5.05;;;23.10;99.80;;;;;;5064805;28;20041;-61
2023/06/17 10:24:26;;;;;;;9.70;5.13;;;23.30;99.20;;;;;;5063381;28;20040;-60
2023/06/17 10:26:53;;;;;;;8.65;4.95;;;23.40;99.20;;;;;;5062404;28;20044;-60
2023/06/17 10:29:20;;;;;;;5.95;4.57;;;23.70;98.20;;;;;;5065813;28;20532;-59
2023/06/17 10:31:47;;;;;;;;;;;23.90;96.00;;;;;;5062404;28;20067;-59
2023/06/17 10:34:15;;;;;;;6.97;5.00;;;24.00;95.30;;;;;;5065141;28;19921;-60
2023/06/17 10:36:47;;;;;;;6.13;4.53;;;24.20;96.60;;;;;;5064040;28;20414;-60
2023/06/17 10:39:14;;;;;;;7.30;4.93;;;24.30;93.90;;;;;;5064287;28;20040;-60
2023/06/17 10:41:40;;;;;;;6.22;4.70;;;24.30;92.20;;;;;;5057167;28;20120;-59
2023/06/17 10:44:34;;;;;;;5.47;4.47;;;24.50;94.30;;;;;;5070730;28;20558;-61
2023/06/17 10:47:05;;;;;;;5.40;4.78;;;24.90;93.50;;;;;;5062136;28;20464;-60
2023/06/17 10:49:39;;;;;;;6.32;4.75;;;25.10;94.00;;;;;;5060758;28;20115;-60
2023/06/17 10:52:11;;;;;;;8.27;4.82;;;25.60;89.60;;;;;;5045209;28;20048;-58
2023/06/17 10:54:55;;;;;;;9.10;5.30;;;25.90;91.60;;;;;;5059061;28;20080;-57
2023/06/17 10:57:30;;;;;;;7.82;5.05;;;26.20;89.60;;;;;;5050499;28;20033;-60
2023/06/17 11:00:11;;;;;;;6.20;4.82;;;25.50;86.00;;;;;;5055732;28;20463;-61
2023/06/17 11:02:39;;;;;;;6.97;4.55;;;25.10;89.00;;;;;;5062457;28;20037;-60
2023/06/17 11:05:07;;;;;;;15.95;5.28;;;24.50;91.30;;;;;;5062515;28;20051;-59
2023/06/17 11:07:34;;;;;;;6.72;5.05;;;24.30;92.70;;;;;;5060939;28;20043;-60
2023/06/17 11:10:02;;;;;;;6.45;5.03;;;24.20;91.70;;;;;;5069960;28;20040;-60
2023/06/17 11:12:29;;;;;;;7.72;4.70;;;24.10;92.10;;;;;;5053921;28;20045;-60
2023/06/17 11:14:59;;;;;;;8.02;5.07;;;23.70;91.90;;;;;;5061407;28;20036;-58
2023/06/17 11:17:26;;;;;;;6.32;5.40;;;23.30;92.00;;;;;;5065383;28;20040;-60
2023/06/17 11:19:53;;;;;;;5.93;5.15;;;22.60;93.10;;;;;;5070639;28;20497;-59
2023/06/17 11:22:21;;;;;;;6.43;4.97;;;22.60;93.70;;;;;;5056285;28;20506;-61
2023/06/17 11:24:47;;;;;;;8.32;5.18;;;23.10;94.00;;;;;;5068692;28;20044;-58
2023/06/17 11:27:15;;;;;;;6.43;4.88;;;23.60;93.40;;;;;;5061931;28;20051;-61
2023/06/17 11:29:42;;;;;;;7.85;5.07;;;24.20;92.80;;;;;;5070579;28;20053;-58
2023/06/17 11:32:11;;;;;;;6.35;4.93;;;24.50;90.70;;;;;;5053710;28;20511;-61
2023/06/17 11:34:40;;;;;;;6.80;4.68;;;24.50;90.90;;;;;;5054158;28;20128;-59
2023/06/17 11:37:10;;;;;;;8.52;4.88;;;24.80;90.80;;;;;;5064989;28;20462;-60
2023/06/17 11:39:38;;;;;;;6.72;4.90;;;25.10;91.60;;;;;;5061734;28;20040;-60
2023/06/17 11:42:06;;;;;;;6.88;5.07;;;25.40;88.10;;;;;;5061818;28;20045;-60
2023/06/17 11:44:35;;;;;;;5.65;4.70;;;25.30;90.10;;;;;;5069602;28;20044;-59
2023/06/17 11:47:07;;;;;;;6.60;5.25;;;25.30;87.00;;;;;;5067346;28;20068;-60
2023/06/17 11:49:35;;;;;;;5.53;4.93;;;25.50;88.20;;;;;;5065727;28;20109;-59
2023/06/17 11:52:06;;;;;;;8.30;5.32;;;25.20;89.60;;;;;;5063284;28;20044;-60
2023/06/17 11:54:34;;;;;;;7.80;5.63;;;24.70;86.80;;;;;;5064573;28;20110;-59
2023/06/17 11:57:02;;;;;;;7.90;5.57;;;24.30;88.70;;;;;;5053276;28;20064;-59
2023/06/17 11:59:31;;;;;;;6.43;5.10;;;23.70;90.20;;;;;;5068264;28;20123;-60
2023/06/17 12:01:58;;;;;;;6.97;5.18;;;23.50;87.40;;;;;;5062440;28;20057;-60
2023/06/17 12:04:25;;;;;;;9.85;5.45;;;23.30;89.20;;;;;;5061522;28;20041;-59
2023/06/17 12:06:53;;;;;;;8.18;5.22;;;23.20;90.30;;;;;;5071829;28;20040;-59
2023/06/17 12:09:21;;;;;;;7.53;5.28;;;23.10;90.10;;;;;;5067346;28;20041;-60
2023/06/17 12:11:47;;;;;;;8.88;5.28;;;23.10;89.80;;;;;;5073229;28;20459;-59
2023/06/17 12:14:15;;;;;;;8.15;5.05;;;23.00;89.70;;;;;;5062093;28;20068;-58
2023/06/17 12:16:43;;;;;;;5.97;4.75;;;23.00;90.60;;;;;;5065127;28;20402;-61
2023/06/17 12:19:23;;;;;;;10.13;6.00;;;22.90;88.70;;;;;;5053488;28;20041;-62
2023/06/17 12:21:51;;;;;;;6.82;5.00;;;22.90;88.70;;;;;;5069221;28;20046;-61
2023/06/17 12:24:19;;;;;;;8.43;4.95;;;23.10;87.90;;;;;;5057739;28;20147;-61
2023/06/17 12:26:46;;;;;;;8.02;5.28;;;23.60;89.30;;;;;;5063737;28;20178;-61
2023/06/17 12:29:13;;;;;;;10.30;5.22;;;24.30;90.30;;;;;;5065606;28;20048;-62
2023/06/17 12:31:51;;;;;;;11.25;5.47;;;25.10;89.90;;;;;;5055809;28;20103;-62
2023/06/17 12:34:18;;;;;;;7.80;5.25;;;25.30;83.90;;;;;;5067327;28;20508;-62
2023/06/17 12:36:45;;;;;;;8.25;5.22;;;25.10;83.80;;;;;;5055571;28;20577;-62
2023/06/17 12:39:12;;;;;;;6.43;4.57;;;25.00;80.00;;;;;;5056987;28;20540;-61
2023/06/17 12:41:39;;;;;;;8.35;5.13;;;25.30;81.80;;;;;;5063861;28;20049;-61
2023/06/17 12:44:06;;;;;;;8.80;5.85;;;25.80;81.40;;;;;;5072515;28;20033;-61
2023/06/17 12:46:35;;;;;;;;;;;26.10;83.30;;;;;;5058120;28;20048;-60
2023/06/17 12:49:02;;;;;;;7.47;4.95;;;25.90;78.40;;;;;;5063399;28;19927;-60
2023/06/17 12:51:29;;;;;;;9.50;5.43;;;26.00;77.40;;;;;;5067264;28;20041;-61